sensor_id;sensor_type;location;lat;lon;timestamp;P1;durP1;ratioP1;P2;durP2;ratioP2
10651;SDS011;5374;42.742;23.266;2022-09-04T00:01:40;10.10;;;8.37;;
10651;SDS011;5374;42.742;23.266;2022-09-04T00:04:38;8.57;;;7.67;;
10651;SDS011;5374;42.742;23.266;2022-09-04T00:07:34;10.13;;;7.97;;
10651;SDS011;5374;42.742;23.266;2022-09-04T00:10:45;10.67;;;8.20;;
10651;SDS011;5374;42.742;23.266;2022-09-04T00:13:39;11.63;;;8.10;;
10651;SDS011;5374;42.742;23.266;2022-09-04T00:16:32;8.60;;;7.70;;
10651;SDS011;5374;42.742;23.266;2022-09-04T00:19:29;10.07;;;8.23;;
10651;SDS011;5374;42.742;23.266;2022-09-04T00:22:27;15.33;;;8.23;;
10651;SDS011;5374;42.742;23.266;2022-09-04T00:25:20;9.13;;;8.23;;
10651;SDS011;5374;42.742;23.266;2022-09-04T00:28:18;9.13;;;7.77;;
10651;SDS011;5374;42.742;23.266;2022-09-04T00:31:21;11.17;;;8.37;;
10651;SDS011;5374;42.742;23.266;2022-09-04T00:34:15;9.80;;;8.00;;
10651;SDS011;5374;42.742;23.266;2022-09-04T00:37:17;11.47;;;8.30;;
10651;SDS011;5374;42.742;23.266;2022-09-04T00:40:12;11.63;;;8.57;;
10651;SDS011;5374;42.742;23.266;2022-09-04T00:46:46;11.80;;;8.67;;
10651;SDS011;5374;42.742;23.266;2022-09-04T00:49:50;11.03;;;7.90;;
10651;SDS011;5374;42.742;23.266;2022-09-04T00:56:27;11.80;;;8.03;;
10651;SDS011;5374;42.742;23.266;2022-09-04T00:59:30;10.23;;;7.20;;
10651;SDS011;5374;42.742;23.266;2022-09-04T01:02:34;9.13;;;7.53;;
10651;SDS011;5374;42.742;23.266;2022-09-04T01:05:46;10.67;;;7.70;;
10651;SDS011;5374;42.742;23.266;2022-09-04T01:08:56;9.53;;;7.73;;
10651;SDS011;5374;42.742;23.266;2022-09-04T01:11:56;8.97;;;7.60;;
10651;SDS011;5374;42.742;23.266;2022-09-04T01:14:53;9.70;;;7.90;;
10651;SDS011;5374;42.742;23.266;2022-09-04T01:17:53;10.67;;;7.80;;
10651;SDS011;5374;42.742;23.266;2022-09-04T01:21:03;12.43;;;8.90;;
10651;SDS011;5374;42.742;23.266;2022-09-04T01:24:06;11.10;;;8.70;;
10651;SDS011;5374;42.742;23.266;2022-09-04T01:27:12;10.47;;;8.33;;
10651;SDS011;5374;42.742;23.266;2022-09-04T01:30:06;11.30;;;8.57;;
10651;SDS011;5374;42.742;23.266;2022-09-04T01:32:57;10.57;;;8.73;;
10651;SDS011;5374;42.742;23.266;2022-09-04T01:35:52;12.00;;;8.60;;
10651;SDS011;5374;42.742;23.266;2022-09-04T01:38:48;14.07;;;8.73;;
10651;SDS011;5374;42.742;23.266;2022-09-04T01:41:38;11.00;;;8.27;;
10651;SDS011;5374;42.742;23.266;2022-09-04T01:44:31;11.83;;;8.33;;
10651;SDS011;5374;42.742;23.266;2022-09-04T01:47:19;10.13;;;7.90;;
10651;SDS011;5374;42.742;23.266;2022-09-04T01:50:17;15.37;;;9.03;;
10651;SDS011;5374;42.742;23.266;2022-09-04T01:53:09;17.20;;;10.67;;
10651;SDS011;5374;42.742;23.266;2022-09-04T01:56:01;28.10;;;13.97;;
10651;SDS011;5374;42.742;23.266;2022-09-04T01:58:59;25.23;;;12.80;;
10651;SDS011;5374;42.742;23.266;2022-09-04T02:02:03;22.87;;;12.13;;
10651;SDS011;5374;42.742;23.266;2022-09-04T02:05:03;18.07;;;11.33;;
10651;SDS011;5374;42.742;23.266;2022-09-04T02:08:02;16.17;;;10.10;;
10651;SDS011;5374;42.742;23.266;2022-09-04T02:11:01;13.17;;;9.63;;
10651;SDS011;5374;42.742;23.266;2022-09-04T02:13:59;14.33;;;10.00;;
10651;SDS011;5374;42.742;23.266;2022-09-04T02:16:59;18.87;;;9.10;;
10651;SDS011;5374;42.742;23.266;2022-09-04T02:20:00;11.87;;;8.90;;
10651;SDS011;5374;42.742;23.266;2022-09-04T02:22:58;12.07;;;9.30;;
10651;SDS011;5374;42.742;23.266;2022-09-04T02:25:57;10.40;;;8.30;;
10651;SDS011;5374;42.742;23.266;2022-09-04T02:28:51;10.77;;;8.80;;
10651;SDS011;5374;42.742;23.266;2022-09-04T02:31:46;9.97;;;8.87;;
10651;SDS011;5374;42.742;23.266;2022-09-04T02:34:41;15.90;;;9.70;;
10651;SDS011;5374;42.742;23.266;2022-09-04T02:37:37;11.37;;;8.73;;
10651;SDS011;5374;42.742;23.266;2022-09-04T02:40:31;9.97;;;8.90;;
10651;SDS011;5374;42.742;23.266;2022-09-04T02:43:32;9.07;;;7.57;;
10651;SDS011;5374;42.742;23.266;2022-09-04T02:46:32;11.07;;;8.07;;
10651;SDS011;5374;42.742;23.266;2022-09-04T02:49:33;11.20;;;7.80;;
10651;SDS011;5374;42.742;23.266;2022-09-04T02:52:34;11.17;;;8.17;;
10651;SDS011;5374;42.742;23.266;2022-09-04T02:55:41;11.17;;;8.00;;
10651;SDS011;5374;42.742;23.266;2022-09-04T02:58:40;10.40;;;8.03;;
10651;SDS011;5374;42.742;23.266;2022-09-04T03:01:38;9.03;;;8.03;;
10651;SDS011;5374;42.742;23.266;2022-09-04T03:04:38;9.77;;;8.10;;
10651;SDS011;5374;42.742;23.266;2022-09-04T03:07:36;11.27;;;8.00;;
10651;SDS011;5374;42.742;23.266;2022-09-04T03:10:31;10.47;;;7.93;;
10651;SDS011;5374;42.742;23.266;2022-09-04T03:13:25;11.70;;;8.50;;
10651;SDS011;5374;42.742;23.266;2022-09-04T03:16:16;12.60;;;7.80;;
10651;SDS011;5374;42.742;23.266;2022-09-04T03:19:12;9.83;;;8.17;;
10651;SDS011;5374;42.742;23.266;2022-09-04T03:22:05;10.80;;;8.27;;
10651;SDS011;5374;42.742;23.266;2022-09-04T03:28:19;9.30;;;8.30;;
10651;SDS011;5374;42.742;23.266;2022-09-04T03:31:22;10.77;;;8.23;;
10651;SDS011;5374;42.742;23.266;2022-09-04T03:34:17;8.90;;;7.43;;
10651;SDS011;5374;42.742;23.266;2022-09-04T03:37:24;13.07;;;8.23;;
10651;SDS011;5374;42.742;23.266;2022-09-04T03:40:22;9.87;;;8.23;;
10651;SDS011;5374;42.742;23.266;2022-09-04T03:46:40;11.90;;;9.53;;
10651;SDS011;5374;42.742;23.266;2022-09-04T03:49:41;12.70;;;8.80;;
10651;SDS011;5374;42.742;23.266;2022-09-04T03:52:40;14.40;;;9.13;;
10651;SDS011;5374;42.742;23.266;2022-09-04T03:58:56;14.07;;;9.90;;
10651;SDS011;5374;42.742;23.266;2022-09-04T04:01:50;17.13;;;10.97;;
10651;SDS011;5374;42.742;23.266;2022-09-04T04:11:35;19.30;;;13.30;;
10651;SDS011;5374;42.742;23.266;2022-09-04T04:21:12;18.17;;;12.97;;
10651;SDS011;5374;42.742;23.266;2022-09-04T04:27:36;17.93;;;12.37;;
10651;SDS011;5374;42.742;23.266;2022-09-04T04:30:37;18.20;;;12.37;;
10651;SDS011;5374;42.742;23.266;2022-09-04T04:36:41;14.30;;;11.53;;
10651;SDS011;5374;42.742;23.266;2022-09-04T04:39:38;14.37;;;11.33;;
10651;SDS011;5374;42.742;23.266;2022-09-04T04:42:34;18.47;;;11.63;;
10651;SDS011;5374;42.742;23.266;2022-09-04T04:45:30;14.43;;;10.27;;
10651;SDS011;5374;42.742;23.266;2022-09-04T04:48:47;16.93;;;11.70;;
10651;SDS011;5374;42.742;23.266;2022-09-04T04:52:02;15.50;;;10.47;;
10651;SDS011;5374;42.742;23.266;2022-09-04T04:55:05;14.63;;;10.50;;
10651;SDS011;5374;42.742;23.266;2022-09-04T04:58:17;14.97;;;9.13;;
10651;SDS011;5374;42.742;23.266;2022-09-04T05:01:18;13.30;;;8.53;;
10651;SDS011;5374;42.742;23.266;2022-09-04T05:04:16;11.60;;;7.67;;
10651;SDS011;5374;42.742;23.266;2022-09-04T05:07:14;9.40;;;7.87;;
10651;SDS011;5374;42.742;23.266;2022-09-04T05:10:09;8.33;;;7.47;;
10651;SDS011;5374;42.742;23.266;2022-09-04T05:13:07;11.70;;;8.43;;
10651;SDS011;5374;42.742;23.266;2022-09-04T05:16:03;13.37;;;8.80;;
10651;SDS011;5374;42.742;23.266;2022-09-04T05:18:59;10.10;;;9.00;;
10651;SDS011;5374;42.742;23.266;2022-09-04T05:21:55;14.47;;;9.90;;
10651;SDS011;5374;42.742;23.266;2022-09-04T05:24:50;12.67;;;9.00;;
10651;SDS011;5374;42.742;23.266;2022-09-04T05:27:48;15.17;;;9.87;;
10651;SDS011;5374;42.742;23.266;2022-09-04T05:30:45;10.40;;;9.33;;
10651;SDS011;5374;42.742;23.266;2022-09-04T05:33:37;12.80;;;10.70;;
10651;SDS011;5374;42.742;23.266;2022-09-04T05:36:34;15.27;;;11.57;;
10651;SDS011;5374;42.742;23.266;2022-09-04T05:39:33;14.23;;;12.20;;
10651;SDS011;5374;42.742;23.266;2022-09-04T05:42:40;15.47;;;12.10;;
10651;SDS011;5374;42.742;23.266;2022-09-04T05:45:32;11.23;;;9.70;;
10651;SDS011;5374;42.742;23.266;2022-09-04T05:48:29;9.30;;;8.30;;
10651;SDS011;5374;42.742;23.266;2022-09-04T05:54:54;7.80;;;6.37;;
10651;SDS011;5374;42.742;23.266;2022-09-04T05:57:55;6.80;;;6.13;;
10651;SDS011;5374;42.742;23.266;2022-09-04T06:00:57;7.67;;;5.57;;
10651;SDS011;5374;42.742;23.266;2022-09-04T06:07:14;6.63;;;5.97;;
10651;SDS011;5374;42.742;23.266;2022-09-04T06:10:09;6.20;;;5.60;;
10651;SDS011;5374;42.742;23.266;2022-09-04T06:13:13;8.10;;;5.70;;
10651;SDS011;5374;42.742;23.266;2022-09-04T06:20:17;6.07;;;5.20;;
10651;SDS011;5374;42.742;23.266;2022-09-04T06:23:32;6.27;;;5.60;;
10651;SDS011;5374;42.742;23.266;2022-09-04T06:26:41;5.40;;;4.90;;
10651;SDS011;5374;42.742;23.266;2022-09-04T06:29:51;6.00;;;5.07;;
10651;SDS011;5374;42.742;23.266;2022-09-04T06:32:58;5.57;;;4.80;;
10651;SDS011;5374;42.742;23.266;2022-09-04T06:39:38;6.17;;;5.43;;
10651;SDS011;5374;42.742;23.266;2022-09-04T06:42:46;5.73;;;5.23;;
10651;SDS011;5374;42.742;23.266;2022-09-04T06:45:46;5.83;;;5.20;;
10651;SDS011;5374;42.742;23.266;2022-09-04T06:48:42;5.90;;;5.40;;
10651;SDS011;5374;42.742;23.266;2022-09-04T06:51:41;6.00;;;5.40;;
10651;SDS011;5374;42.742;23.266;2022-09-04T06:54:43;7.33;;;6.63;;
10651;SDS011;5374;42.742;23.266;2022-09-04T06:57:45;6.83;;;6.23;;
10651;SDS011;5374;42.742;23.266;2022-09-04T07:00:49;7.93;;;6.83;;
10651;SDS011;5374;42.742;23.266;2022-09-04T07:03:45;7.87;;;7.17;;
10651;SDS011;5374;42.742;23.266;2022-09-04T07:06:48;7.80;;;7.10;;
10651;SDS011;5374;42.742;23.266;2022-09-04T07:09:46;10.10;;;9.10;;
10651;SDS011;5374;42.742;23.266;2022-09-04T07:12:46;9.17;;;8.27;;
10651;SDS011;5374;42.742;23.266;2022-09-04T07:22:39;10.17;;;9.13;;
10651;SDS011;5374;42.742;23.266;2022-09-04T07:25:41;11.83;;;10.37;;
10651;SDS011;5374;42.742;23.266;2022-09-04T07:28:39;12.93;;;11.63;;
10651;SDS011;5374;42.742;23.266;2022-09-04T07:31:33;16.30;;;14.40;;
10651;SDS011;5374;42.742;23.266;2022-09-04T07:34:28;18.13;;;15.80;;
10651;SDS011;5374;42.742;23.266;2022-09-04T07:37:32;19.03;;;17.03;;
10651;SDS011;5374;42.742;23.266;2022-09-04T07:40:28;21.00;;;18.40;;
10651;SDS011;5374;42.742;23.266;2022-09-04T07:43:21;19.53;;;16.67;;
10651;SDS011;5374;42.742;23.266;2022-09-04T07:46:15;16.40;;;14.80;;
10651;SDS011;5374;42.742;23.266;2022-09-04T07:49:07;18.13;;;16.23;;
10651;SDS011;5374;42.742;23.266;2022-09-04T07:52:02;15.53;;;14.03;;
10651;SDS011;5374;42.742;23.266;2022-09-04T07:55:03;17.53;;;14.70;;
10651;SDS011;5374;42.742;23.266;2022-09-04T07:58:06;14.77;;;13.23;;
10651;SDS011;5374;42.742;23.266;2022-09-04T08:01:26;15.80;;;13.83;;
10651;SDS011;5374;42.742;23.266;2022-09-04T08:04:34;16.27;;;13.43;;
10651;SDS011;5374;42.742;23.266;2022-09-04T08:07:51;13.00;;;11.77;;
10651;SDS011;5374;42.742;23.266;2022-09-04T08:10:55;12.90;;;11.70;;
10651;SDS011;5374;42.742;23.266;2022-09-04T08:14:03;12.97;;;11.77;;
10651;SDS011;5374;42.742;23.266;2022-09-04T08:20:33;13.83;;;12.03;;
10651;SDS011;5374;42.742;23.266;2022-09-04T08:23:32;13.43;;;12.03;;
10651;SDS011;5374;42.742;23.266;2022-09-04T08:26:39;14.43;;;12.93;;
10651;SDS011;5374;42.742;23.266;2022-09-04T08:29:38;14.73;;;12.80;;
10651;SDS011;5374;42.742;23.266;2022-09-04T08:32:45;13.63;;;12.27;;
10651;SDS011;5374;42.742;23.266;2022-09-04T08:35:51;12.13;;;10.97;;
10651;SDS011;5374;42.742;23.266;2022-09-04T08:38:45;13.17;;;11.77;;
10651;SDS011;5374;42.742;23.266;2022-09-04T08:41:54;11.63;;;10.30;;
10651;SDS011;5374;42.742;23.266;2022-09-04T08:48:45;11.80;;;9.40;;
10651;SDS011;5374;42.742;23.266;2022-09-04T08:55:38;11.30;;;10.13;;
10651;SDS011;5374;42.742;23.266;2022-09-04T09:02:29;10.40;;;9.27;;
10651;SDS011;5374;42.742;23.266;2022-09-04T09:05:57;10.83;;;9.30;;
10651;SDS011;5374;42.742;23.266;2022-09-04T09:09:27;8.40;;;7.60;;
10651;SDS011;5374;42.742;23.266;2022-09-04T09:16:21;6.07;;;5.57;;
10651;SDS011;5374;42.742;23.266;2022-09-04T09:19:14;6.87;;;5.50;;
10651;SDS011;5374;42.742;23.266;2022-09-04T09:22:13;5.90;;;5.40;;
10651;SDS011;5374;42.742;23.266;2022-09-04T09:25:17;8.13;;;6.20;;
10651;SDS011;5374;42.742;23.266;2022-09-04T09:28:13;6.50;;;5.90;;
10651;SDS011;5374;42.742;23.266;2022-09-04T09:34:58;5.60;;;5.00;;
10651;SDS011;5374;42.742;23.266;2022-09-04T09:44:59;5.93;;;5.43;;
10651;SDS011;5374;42.742;23.266;2022-09-04T09:48:08;7.53;;;5.77;;
10651;SDS011;5374;42.742;23.266;2022-09-04T09:51:26;5.87;;;5.27;;
10651;SDS011;5374;42.742;23.266;2022-09-04T09:54:58;6.27;;;5.60;;
10651;SDS011;5374;42.742;23.266;2022-09-04T09:58:09;7.30;;;5.23;;
10651;SDS011;5374;42.742;23.266;2022-09-04T10:08:02;5.47;;;4.97;;
10651;SDS011;5374;42.742;23.266;2022-09-04T10:11:23;5.70;;;5.20;;
10651;SDS011;5374;42.742;23.266;2022-09-04T10:18:05;8.83;;;5.80;;
10651;SDS011;5374;42.742;23.266;2022-09-04T10:21:24;7.43;;;5.20;;
10651;SDS011;5374;42.742;23.266;2022-09-04T10:34:46;7.43;;;6.07;;
10651;SDS011;5374;42.742;23.266;2022-09-04T10:37:59;5.90;;;5.30;;
10651;SDS011;5374;42.742;23.266;2022-09-04T10:44:33;6.30;;;5.57;;
10651;SDS011;5374;42.742;23.266;2022-09-04T10:47:31;6.30;;;5.20;;
10651;SDS011;5374;42.742;23.266;2022-09-04T10:54:10;10.23;;;7.30;;
10651;SDS011;5374;42.742;23.266;2022-09-04T10:57:24;8.87;;;6.53;;
10651;SDS011;5374;42.742;23.266;2022-09-04T11:00:28;13.83;;;8.60;;
10651;SDS011;5374;42.742;23.266;2022-09-04T11:03:33;7.53;;;5.97;;
10651;SDS011;5374;42.742;23.266;2022-09-04T11:06:35;6.20;;;5.60;;
10651;SDS011;5374;42.742;23.266;2022-09-04T11:09:40;5.90;;;5.30;;
10651;SDS011;5374;42.742;23.266;2022-09-04T11:16:08;7.37;;;4.37;;
10651;SDS011;5374;42.742;23.266;2022-09-04T11:19:32;5.07;;;4.40;;
10651;SDS011;5374;42.742;23.266;2022-09-04T11:22:47;6.77;;;4.47;;
10651;SDS011;5374;42.742;23.266;2022-09-04T11:29:29;14.17;;;7.27;;
10651;SDS011;5374;42.742;23.266;2022-09-04T11:32:38;5.63;;;5.13;;
10651;SDS011;5374;42.742;23.266;2022-09-04T11:39:16;5.10;;;4.60;;
10651;SDS011;5374;42.742;23.266;2022-09-04T11:45:42;4.73;;;4.33;;
10651;SDS011;5374;42.742;23.266;2022-09-04T11:49:06;4.60;;;4.00;;
10651;SDS011;5374;42.742;23.266;2022-09-04T11:58:52;5.33;;;4.57;;
10651;SDS011;5374;42.742;23.266;2022-09-04T12:02:05;3.70;;;3.40;;
10651;SDS011;5374;42.742;23.266;2022-09-04T12:05:21;4.03;;;3.43;;
10651;SDS011;5374;42.742;23.266;2022-09-04T12:08:38;4.00;;;3.60;;
10651;SDS011;5374;42.742;23.266;2022-09-04T12:11:50;3.70;;;3.40;;
10651;SDS011;5374;42.742;23.266;2022-09-04T12:15:02;3.70;;;3.30;;
10651;SDS011;5374;42.742;23.266;2022-09-04T12:21:50;5.70;;;3.30;;
10651;SDS011;5374;42.742;23.266;2022-09-04T12:32:01;2.93;;;2.73;;
10651;SDS011;5374;42.742;23.266;2022-09-04T12:35:18;3.30;;;3.00;;
10651;SDS011;5374;42.742;23.266;2022-09-04T12:41:41;3.00;;;2.70;;
10651;SDS011;5374;42.742;23.266;2022-09-04T12:44:38;3.70;;;2.70;;
10651;SDS011;5374;42.742;23.266;2022-09-04T12:47:38;5.00;;;2.80;;
10651;SDS011;5374;42.742;23.266;2022-09-04T12:50:37;3.30;;;3.00;;
10651;SDS011;5374;42.742;23.266;2022-09-04T12:53:34;3.80;;;2.87;;
10651;SDS011;5374;42.742;23.266;2022-09-04T12:56:38;3.00;;;2.80;;
10651;SDS011;5374;42.742;23.266;2022-09-04T12:59:36;2.87;;;2.57;;
10651;SDS011;5374;42.742;23.266;2022-09-04T13:02:36;3.00;;;2.70;;
10651;SDS011;5374;42.742;23.266;2022-09-04T13:05:46;5.40;;;3.10;;
10651;SDS011;5374;42.742;23.266;2022-09-04T13:08:45;3.27;;;2.80;;
10651;SDS011;5374;42.742;23.266;2022-09-04T13:11:48;3.60;;;3.30;;
10651;SDS011;5374;42.742;23.266;2022-09-04T13:21:29;3.43;;;2.80;;
10651;SDS011;5374;42.742;23.266;2022-09-04T13:24:37;3.70;;;3.40;;
10651;SDS011;5374;42.742;23.266;2022-09-04T13:27:42;3.77;;;3.00;;
10651;SDS011;5374;42.742;23.266;2022-09-04T13:30:43;3.33;;;3.03;;
10651;SDS011;5374;42.742;23.266;2022-09-04T13:33:42;4.07;;;3.03;;
10651;SDS011;5374;42.742;23.266;2022-09-04T13:36:42;4.20;;;3.20;;
10651;SDS011;5374;42.742;23.266;2022-09-04T13:39:42;3.97;;;3.27;;
10651;SDS011;5374;42.742;23.266;2022-09-04T13:42:50;3.67;;;3.30;;
10651;SDS011;5374;42.742;23.266;2022-09-04T13:46:01;5.17;;;3.33;;
10651;SDS011;5374;42.742;23.266;2022-09-04T13:48:53;4.50;;;3.53;;
10651;SDS011;5374;42.742;23.266;2022-09-04T13:51:47;3.47;;;3.17;;
10651;SDS011;5374;42.742;23.266;2022-09-04T13:54:44;3.23;;;2.90;;
10651;SDS011;5374;42.742;23.266;2022-09-04T13:57:38;3.73;;;3.07;;
10651;SDS011;5374;42.742;23.266;2022-09-04T14:00:30;2.90;;;2.57;;
10651;SDS011;5374;42.742;23.266;2022-09-04T14:03:28;4.53;;;2.90;;
10651;SDS011;5374;42.742;23.266;2022-09-04T14:06:21;3.50;;;3.20;;
10651;SDS011;5374;42.742;23.266;2022-09-04T14:09:11;4.10;;;3.30;;
10651;SDS011;5374;42.742;23.266;2022-09-04T14:18:46;4.37;;;3.03;;
10651;SDS011;5374;42.742;23.266;2022-09-04T14:21:45;3.17;;;2.87;;
10651;SDS011;5374;42.742;23.266;2022-09-04T14:24:50;3.17;;;2.87;;
10651;SDS011;5374;42.742;23.266;2022-09-04T14:27:50;5.10;;;2.80;;
10651;SDS011;5374;42.742;23.266;2022-09-04T14:30:52;3.20;;;2.90;;
10651;SDS011;5374;42.742;23.266;2022-09-04T14:33:53;3.30;;;3.00;;
10651;SDS011;5374;42.742;23.266;2022-09-04T14:36:49;3.10;;;2.80;;
10651;SDS011;5374;42.742;23.266;2022-09-04T14:39:46;2.90;;;2.70;;
10651;SDS011;5374;42.742;23.266;2022-09-04T14:42:41;4.47;;;3.07;;
10651;SDS011;5374;42.742;23.266;2022-09-04T14:45:49;4.00;;;2.73;;
10651;SDS011;5374;42.742;23.266;2022-09-04T14:48:58;4.20;;;2.93;;
10651;SDS011;5374;42.742;23.266;2022-09-04T14:51:47;3.23;;;2.80;;
10651;SDS011;5374;42.742;23.266;2022-09-04T14:54:40;5.83;;;2.80;;
10651;SDS011;5374;42.742;23.266;2022-09-04T14:57:31;4.93;;;3.17;;
10651;SDS011;5374;42.742;23.266;2022-09-04T15:00:24;3.73;;;2.90;;
10651;SDS011;5374;42.742;23.266;2022-09-04T15:03:16;3.10;;;2.90;;
10651;SDS011;5374;42.742;23.266;2022-09-04T15:06:14;3.30;;;3.00;;
10651;SDS011;5374;42.742;23.266;2022-09-04T15:09:14;4.97;;;2.83;;
10651;SDS011;5374;42.742;23.266;2022-09-04T15:12:14;3.10;;;2.80;;
10651;SDS011;5374;42.742;23.266;2022-09-04T15:15:06;5.13;;;3.23;;
10651;SDS011;5374;42.742;23.266;2022-09-04T15:17:56;3.43;;;3.13;;
10651;SDS011;5374;42.742;23.266;2022-09-04T15:20:50;3.70;;;3.40;;
10651;SDS011;5374;42.742;23.266;2022-09-04T15:23:43;6.63;;;3.33;;
10651;SDS011;5374;42.742;23.266;2022-09-04T15:26:38;6.20;;;5.20;;
10651;SDS011;5374;42.742;23.266;2022-09-04T15:29:32;3.77;;;3.20;;
10651;SDS011;5374;42.742;23.266;2022-09-04T15:32:26;3.50;;;3.20;;
10651;SDS011;5374;42.742;23.266;2022-09-04T15:35:20;3.10;;;2.80;;
10651;SDS011;5374;42.742;23.266;2022-09-04T15:38:12;5.03;;;3.30;;
10651;SDS011;5374;42.742;23.266;2022-09-04T15:41:14;3.97;;;3.10;;
10651;SDS011;5374;42.742;23.266;2022-09-04T15:44:09;4.43;;;3.30;;
10651;SDS011;5374;42.742;23.266;2022-09-04T15:47:04;3.40;;;3.10;;
10651;SDS011;5374;42.742;23.266;2022-09-04T15:50:02;4.67;;;2.83;;
10651;SDS011;5374;42.742;23.266;2022-09-04T15:52:59;3.90;;;3.07;;
10651;SDS011;5374;42.742;23.266;2022-09-04T15:56:02;5.27;;;3.57;;
10651;SDS011;5374;42.742;23.266;2022-09-04T15:58:54;5.80;;;3.53;;
10651;SDS011;5374;42.742;23.266;2022-09-04T16:01:49;6.03;;;2.90;;
10651;SDS011;5374;42.742;23.266;2022-09-04T16:04:50;5.93;;;2.87;;
10651;SDS011;5374;42.742;23.266;2022-09-04T16:07:45;3.70;;;2.97;;
10651;SDS011;5374;42.742;23.266;2022-09-04T16:10:43;4.13;;;2.80;;
10651;SDS011;5374;42.742;23.266;2022-09-04T16:13:40;3.87;;;3.20;;
10651;SDS011;5374;42.742;23.266;2022-09-04T16:16:38;3.40;;;3.10;;
10651;SDS011;5374;42.742;23.266;2022-09-04T16:19:30;3.93;;;3.30;;
10651;SDS011;5374;42.742;23.266;2022-09-04T16:22:24;3.63;;;3.30;;
10651;SDS011;5374;42.742;23.266;2022-09-04T16:25:21;4.10;;;3.30;;
10651;SDS011;5374;42.742;23.266;2022-09-04T16:28:15;4.23;;;3.03;;
10651;SDS011;5374;42.742;23.266;2022-09-04T16:31:11;4.63;;;3.47;;
10651;SDS011;5374;42.742;23.266;2022-09-04T16:34:18;5.27;;;3.07;;
10651;SDS011;5374;42.742;23.266;2022-09-04T16:37:08;5.50;;;3.30;;
10651;SDS011;5374;42.742;23.266;2022-09-04T16:40:04;4.00;;;3.30;;
10651;SDS011;5374;42.742;23.266;2022-09-04T16:43:01;4.40;;;3.00;;
10651;SDS011;5374;42.742;23.266;2022-09-04T16:46:08;4.03;;;3.63;;
10651;SDS011;5374;42.742;23.266;2022-09-04T16:49:01;3.47;;;3.17;;
10651;SDS011;5374;42.742;23.266;2022-09-04T16:51:56;4.03;;;3.63;;
10651;SDS011;5374;42.742;23.266;2022-09-04T16:54:49;4.73;;;3.80;;
10651;SDS011;5374;42.742;23.266;2022-09-04T16:57:40;6.10;;;5.13;;
10651;SDS011;5374;42.742;23.266;2022-09-04T17:00:46;6.67;;;4.03;;
10651;SDS011;5374;42.742;23.266;2022-09-04T17:03:42;5.50;;;4.13;;
10651;SDS011;5374;42.742;23.266;2022-09-04T17:06:39;4.73;;;3.73;;
10651;SDS011;5374;42.742;23.266;2022-09-04T17:09:33;6.17;;;3.70;;
10651;SDS011;5374;42.742;23.266;2022-09-04T17:12:32;5.33;;;4.13;;
10651;SDS011;5374;42.742;23.266;2022-09-04T17:15:29;5.63;;;5.00;;
10651;SDS011;5374;42.742;23.266;2022-09-04T17:18:21;5.07;;;4.43;;
10651;SDS011;5374;42.742;23.266;2022-09-04T17:21:13;5.13;;;4.23;;
10651;SDS011;5374;42.742;23.266;2022-09-04T17:24:20;4.60;;;3.53;;
10651;SDS011;5374;42.742;23.266;2022-09-04T17:27:16;4.17;;;3.77;;
10651;SDS011;5374;42.742;23.266;2022-09-04T17:30:12;4.20;;;3.80;;
10651;SDS011;5374;42.742;23.266;2022-09-04T17:33:04;5.87;;;3.77;;
10651;SDS011;5374;42.742;23.266;2022-09-04T17:36:02;3.73;;;3.40;;
10651;SDS011;5374;42.742;23.266;2022-09-04T17:38:56;6.83;;;4.43;;
10651;SDS011;5374;42.742;23.266;2022-09-04T17:41:51;4.43;;;4.03;;
10651;SDS011;5374;42.742;23.266;2022-09-04T17:44:46;4.40;;;4.00;;
10651;SDS011;5374;42.742;23.266;2022-09-04T17:47:40;4.27;;;3.87;;
10651;SDS011;5374;42.742;23.266;2022-09-04T17:50:28;5.07;;;3.87;;
10651;SDS011;5374;42.742;23.266;2022-09-04T17:53:19;4.33;;;3.93;;
10651;SDS011;5374;42.742;23.266;2022-09-04T17:56:10;4.50;;;3.60;;
10651;SDS011;5374;42.742;23.266;2022-09-04T17:59:05;4.40;;;4.00;;
10651;SDS011;5374;42.742;23.266;2022-09-04T18:01:59;4.47;;;3.60;;
10651;SDS011;5374;42.742;23.266;2022-09-04T18:04:57;4.63;;;3.97;;
10651;SDS011;5374;42.742;23.266;2022-09-04T18:07:55;5.23;;;4.33;;
10651;SDS011;5374;42.742;23.266;2022-09-04T18:10:51;5.50;;;4.13;;
10651;SDS011;5374;42.742;23.266;2022-09-04T18:13:49;5.43;;;4.83;;
10651;SDS011;5374;42.742;23.266;2022-09-04T18:16:49;7.40;;;4.77;;
10651;SDS011;5374;42.742;23.266;2022-09-04T18:19:43;4.97;;;4.50;;
10651;SDS011;5374;42.742;23.266;2022-09-04T18:22:53;5.97;;;4.83;;
10651;SDS011;5374;42.742;23.266;2022-09-04T18:25:49;6.13;;;5.10;;
10651;SDS011;5374;42.742;23.266;2022-09-04T18:28:40;5.20;;;4.67;;
10651;SDS011;5374;42.742;23.266;2022-09-04T18:31:35;4.87;;;4.37;;
10651;SDS011;5374;42.742;23.266;2022-09-04T18:34:27;4.93;;;4.13;;
10651;SDS011;5374;42.742;23.266;2022-09-04T18:37:21;4.53;;;4.13;;
10651;SDS011;5374;42.742;23.266;2022-09-04T18:40:12;4.17;;;3.77;;
10651;SDS011;5374;42.742;23.266;2022-09-04T18:43:03;3.67;;;3.37;;
10651;SDS011;5374;42.742;23.266;2022-09-04T18:45:57;4.27;;;3.87;;
10651;SDS011;5374;42.742;23.266;2022-09-04T18:48:57;5.50;;;3.83;;
10651;SDS011;5374;42.742;23.266;2022-09-04T18:51:47;3.83;;;3.53;;
10651;SDS011;5374;42.742;23.266;2022-09-04T18:54:43;5.37;;;3.67;;
10651;SDS011;5374;42.742;23.266;2022-09-04T18:57:35;5.50;;;4.00;;
10651;SDS011;5374;42.742;23.266;2022-09-04T19:00:32;5.03;;;4.10;;
10651;SDS011;5374;42.742;23.266;2022-09-04T19:03:26;4.20;;;3.80;;
10651;SDS011;5374;42.742;23.266;2022-09-04T19:06:32;4.30;;;3.90;;
10651;SDS011;5374;42.742;23.266;2022-09-04T19:09:24;4.13;;;3.73;;
10651;SDS011;5374;42.742;23.266;2022-09-04T19:12:16;4.10;;;3.70;;
10651;SDS011;5374;42.742;23.266;2022-09-04T19:15:18;3.33;;;3.03;;
10651;SDS011;5374;42.742;23.266;2022-09-04T19:18:12;4.13;;;3.73;;
10651;SDS011;5374;42.742;23.266;2022-09-04T19:21:12;3.97;;;3.57;;
10651;SDS011;5374;42.742;23.266;2022-09-04T19:24:21;6.00;;;3.17;;
10651;SDS011;5374;42.742;23.266;2022-09-04T19:27:19;3.33;;;3.03;;
10651;SDS011;5374;42.742;23.266;2022-09-04T19:30:13;5.27;;;3.40;;
10651;SDS011;5374;42.742;23.266;2022-09-04T19:33:04;3.80;;;3.50;;
10651;SDS011;5374;42.742;23.266;2022-09-04T19:35:59;3.70;;;3.37;;
10651;SDS011;5374;42.742;23.266;2022-09-04T19:38:58;3.93;;;3.53;;
10651;SDS011;5374;42.742;23.266;2022-09-04T19:41:56;4.03;;;3.63;;
10651;SDS011;5374;42.742;23.266;2022-09-04T19:44:55;4.43;;;3.33;;
10651;SDS011;5374;42.742;23.266;2022-09-04T19:47:49;3.83;;;3.43;;
10651;SDS011;5374;42.742;23.266;2022-09-04T19:51:09;5.03;;;3.73;;
10651;SDS011;5374;42.742;23.266;2022-09-04T19:54:03;4.27;;;3.87;;
10651;SDS011;5374;42.742;23.266;2022-09-04T19:56:58;4.17;;;3.50;;
10651;SDS011;5374;42.742;23.266;2022-09-04T20:00:03;4.43;;;3.87;;
10651;SDS011;5374;42.742;23.266;2022-09-04T20:02:54;4.27;;;3.87;;
10651;SDS011;5374;42.742;23.266;2022-09-04T20:05:49;3.93;;;3.50;;
10651;SDS011;5374;42.742;23.266;2022-09-04T20:08:44;5.53;;;3.47;;
10651;SDS011;5374;42.742;23.266;2022-09-04T20:11:38;3.80;;;3.50;;
10651;SDS011;5374;42.742;23.266;2022-09-04T20:14:33;3.90;;;3.13;;
10651;SDS011;5374;42.742;23.266;2022-09-04T20:20:45;4.03;;;3.23;;
10651;SDS011;5374;42.742;23.266;2022-09-04T20:23:40;3.83;;;3.17;;
10651;SDS011;5374;42.742;23.266;2022-09-04T20:26:32;3.50;;;3.20;;
10651;SDS011;5374;42.742;23.266;2022-09-04T20:29:29;4.10;;;3.23;;
10651;SDS011;5374;42.742;23.266;2022-09-04T20:32:23;3.70;;;3.40;;
10651;SDS011;5374;42.742;23.266;2022-09-04T20:35:15;3.17;;;2.87;;
10651;SDS011;5374;42.742;23.266;2022-09-04T20:38:11;3.57;;;3.27;;
10651;SDS011;5374;42.742;23.266;2022-09-04T20:41:06;4.33;;;3.40;;